createdAt,value
2023-05-08T00:01:26.046Z,4.82
2023-05-08T00:03:52.806Z,3.88
2023-05-08T00:06:19.364Z,4.22
2023-05-08T00:08:45.680Z,3.95
2023-05-08T00:11:11.928Z,3.70
2023-05-08T00:13:38.222Z,4.18
2023-05-08T00:16:04.650Z,4.65
2023-05-08T00:18:31.039Z,3.75
2023-05-08T00:20:57.414Z,3.97
2023-05-08T00:23:23.680Z,4.57
2023-05-08T00:25:50.092Z,3.92
2023-05-08T00:28:16.416Z,5.50
2023-05-08T00:30:42.826Z,4.53
2023-05-08T00:33:09.478Z,5.40
2023-05-08T00:35:35.818Z,3.55
2023-05-08T00:38:02.204Z,6.30
2023-05-08T00:40:28.465Z,4.55
2023-05-08T00:42:54.744Z,4.32
2023-05-08T00:45:21.158Z,4.00
2023-05-08T00:47:47.716Z,4.22
2023-05-08T00:50:14.269Z,5.40
2023-05-08T00:52:41.422Z,4.10
2023-05-08T00:55:08.002Z,4.28
2023-05-08T00:57:35.747Z,4.50
2023-05-08T01:00:03.324Z,5.57
2023-05-08T01:02:31.645Z,5.82
2023-05-08T01:04:58.149Z,4.75
2023-05-08T01:07:24.496Z,4.00
2023-05-08T01:09:50.844Z,3.75
2023-05-08T01:12:35.148Z,4.20
2023-05-08T01:15:08.250Z,4.78
2023-05-08T01:17:36.718Z,4.20
2023-05-08T01:20:06.325Z,5.55
2023-05-08T01:23:02.012Z,6.45
2023-05-08T01:25:28.324Z,4.13
2023-05-08T01:27:54.599Z,5.10
2023-05-08T01:30:24.049Z,4.15
2023-05-08T01:32:57.863Z,3.83
2023-05-08T01:35:29.671Z,5.68
2023-05-08T01:38:08.241Z,4.53
2023-05-08T01:40:45.063Z,5.15
2023-05-08T01:43:18.231Z,5.30
2023-05-08T01:45:49.939Z,4.78
2023-05-08T01:48:31.079Z,3.97
2023-05-08T01:51:01.175Z,4.03
2023-05-08T01:53:34.850Z,5.05
2023-05-08T01:56:03.875Z,3.97
2023-05-08T01:58:30.551Z,4.78
2023-05-08T02:00:58.174Z,3.90
2023-05-08T02:03:26.003Z,3.92
2023-05-08T02:05:53.662Z,4.13
2023-05-08T02:08:21.254Z,4.60
2023-05-08T02:10:49.842Z,4.25
2023-05-08T02:13:19.194Z,4.25
2023-05-08T02:15:49.406Z,4.88
2023-05-08T02:18:18.729Z,4.95
2023-05-08T02:20:45.052Z,4.88
2023-05-08T02:23:12.305Z,4.68
2023-05-08T02:25:38.656Z,4.72
2023-05-08T02:28:06.386Z,3.97
2023-05-08T02:30:33.261Z,3.90
2023-05-08T02:33:00.912Z,4.00
2023-05-08T02:35:28.327Z,5.03
2023-05-08T02:37:56.126Z,4.95
2023-05-08T02:40:23.365Z,4.10
2023-05-08T02:42:53.105Z,4.18
2023-05-08T02:45:19.794Z,5.00
2023-05-08T02:47:54.599Z,4.65
2023-05-08T02:50:27.303Z,3.53
2023-05-08T02:52:58.395Z,4.45
2023-05-08T02:55:24.798Z,6.07
2023-05-08T02:58:04.733Z,4.32
2023-05-08T03:00:57.637Z,3.17
2023-05-08T03:03:25.746Z,3.40
2023-05-08T03:05:54.951Z,3.60
2023-05-08T03:08:25.709Z,4.20
2023-05-08T03:10:54.055Z,3.63
2023-05-08T03:13:20.986Z,5.43
2023-05-08T03:16:00.619Z,4.38
2023-05-08T03:18:31.024Z,4.32
2023-05-08T03:20:59.283Z,4.30
2023-05-08T03:23:27.494Z,4.18
2023-05-08T03:25:55.046Z,3.70
2023-05-08T03:28:21.915Z,4.03
2023-05-08T03:30:49.518Z,4.57
2023-05-08T03:33:17.616Z,3.25
2023-05-08T03:35:45.106Z,4.68
2023-05-08T03:38:11.553Z,4.07
2023-05-08T03:40:42.617Z,3.10
2023-05-08T03:43:09.579Z,4.20
2023-05-08T03:45:36.991Z,3.75
2023-05-08T03:48:04.378Z,3.58
2023-05-08T03:50:31.302Z,3.92
2023-05-08T03:53:00.942Z,3.65
2023-05-08T03:55:27.470Z,3.58
2023-05-08T03:57:53.808Z,4.30
2023-05-08T04:00:26.813Z,4.15
2023-05-08T04:02:57.740Z,4.35
2023-05-08T04:05:26.149Z,4.43
2023-05-08T04:07:54.022Z,3.70
2023-05-08T04:10:35.027Z,3.40
2023-05-08T04:13:13.331Z,4.15
2023-05-08T04:15:44.724Z,3.35
2023-05-08T04:18:14.848Z,4.50
2023-05-08T04:20:41.515Z,4.38
2023-05-08T04:23:08.829Z,2.90
2023-05-08T04:25:39.013Z,3.40
2023-05-08T04:28:05.510Z,3.70
2023-05-08T04:30:31.976Z,4.15
2023-05-08T04:32:59.686Z,4.22
2023-05-08T04:35:26.077Z,4.53
2023-05-08T04:37:52.561Z,3.38
2023-05-08T04:40:18.980Z,3.35
2023-05-08T04:42:47.294Z,3.90
2023-05-08T04:45:14.120Z,4.22
2023-05-08T04:47:40.628Z,4.03
2023-05-08T04:50:07.226Z,5.30
2023-05-08T04:52:33.543Z,3.80
2023-05-08T04:54:59.874Z,4.22
2023-05-08T04:57:26.187Z,3.03
2023-05-08T04:59:52.537Z,4.63
2023-05-08T05:02:18.986Z,3.10
2023-05-08T05:04:45.342Z,3.80
2023-05-08T05:07:11.608Z,3.30
2023-05-08T05:09:39.166Z,3.97
2023-05-08T05:12:06.418Z,4.00
2023-05-08T05:14:32.988Z,4.15
2023-05-08T05:16:59.492Z,6.80
2023-05-08T05:19:25.761Z,3.92
2023-05-08T05:21:52.114Z,3.75
2023-05-08T05:24:18.456Z,4.18
2023-05-08T05:26:44.786Z,3.88
2023-05-08T05:29:11.261Z,5.30
2023-05-08T05:31:37.716Z,3.45
2023-05-08T05:34:06.560Z,3.30
2023-05-08T05:36:33.121Z,4.30
2023-05-08T05:38:59.510Z,4.88
2023-05-08T05:41:25.887Z,4.20
2023-05-08T05:43:52.210Z,4.18
2023-05-08T05:46:18.809Z,5.40
2023-05-08T05:48:45.217Z,4.88
2023-05-08T05:51:11.937Z,4.22
2023-05-08T05:53:38.266Z,6.18
2023-05-08T05:56:05.324Z,5.25
2023-05-08T05:58:31.620Z,6.18
2023-05-08T06:00:58.389Z,7.60
2023-05-08T06:03:24.744Z,5.57
2023-05-08T06:05:52.128Z,6.28
2023-05-08T06:08:19.176Z,5.82
2023-05-08T06:10:45.454Z,4.93
2023-05-08T06:13:11.900Z,6.38
2023-05-08T06:15:38.507Z,6.97
2023-05-08T06:18:04.970Z,7.72
2023-05-08T06:20:31.417Z,6.13
2023-05-08T06:23:00.477Z,5.65
2023-05-08T06:25:28.255Z,5.60
2023-05-08T06:27:54.606Z,6.68
2023-05-08T06:30:21.000Z,6.63
2023-05-08T06:32:47.361Z,6.80
2023-05-08T06:35:18.322Z,7.90
2023-05-08T06:37:45.500Z,5.88
2023-05-08T06:40:13.076Z,5.97
2023-05-08T06:42:39.980Z,6.93
2023-05-08T06:45:07.453Z,7.57
2023-05-08T06:47:33.854Z,7.00
2023-05-08T06:50:00.416Z,5.40
2023-05-08T06:52:26.892Z,7.28
2023-05-08T06:57:49.196Z,7.03
2023-05-08T07:00:16.467Z,7.32
2023-05-08T07:02:42.914Z,7.05
2023-05-08T07:05:09.484Z,9.30
2023-05-08T07:07:46.389Z,7.88
2023-05-08T07:10:13.851Z,8.82
2023-05-08T07:12:41.223Z,6.32
2023-05-08T07:15:24.143Z,8.18
2023-05-08T07:17:51.599Z,17.52
2023-05-08T07:20:18.038Z,7.50
2023-05-08T07:22:44.397Z,7.95
2023-05-08T07:25:11.012Z,6.78
2023-05-08T07:27:37.480Z,7.85
2023-05-08T07:30:04.398Z,8.80
2023-05-08T07:32:33.784Z,9.88
2023-05-08T07:35:03.865Z,7.78
2023-05-08T07:37:30.400Z,9.40
2023-05-08T07:39:56.745Z,7.20
2023-05-08T07:42:23.256Z,8.93
2023-05-08T07:44:55.145Z,10.38
2023-05-08T07:47:27.983Z,9.07
2023-05-08T07:49:54.436Z,9.68
2023-05-08T07:52:26.929Z,10.90
2023-05-08T07:55:00.668Z,8.90
2023-05-08T07:57:27.119Z,9.57
2023-05-08T07:59:53.419Z,10.77
2023-05-08T08:02:19.774Z,9.52
2023-05-08T08:04:46.063Z,10.18
2023-05-08T08:07:12.433Z,10.50
2023-05-08T08:09:39.006Z,11.50
2023-05-08T08:12:05.615Z,10.45
2023-05-08T08:14:31.980Z,11.10
2023-05-08T08:16:58.393Z,11.05
2023-05-08T08:19:27.770Z,10.98
2023-05-08T08:21:54.084Z,11.65
2023-05-08T08:24:20.601Z,12.25
2023-05-08T08:26:47.198Z,13.43
2023-05-08T08:29:13.549Z,10.75
2023-05-08T08:31:39.911Z,10.98
2023-05-08T08:34:06.239Z,11.23
2023-05-08T08:36:32.954Z,12.18
2023-05-08T08:38:59.333Z,11.48
2023-05-08T08:41:27.921Z,11.45
2023-05-08T08:43:57.301Z,12.77
2023-05-08T08:46:28.223Z,13.13
2023-05-08T08:48:56.322Z,11.00
2023-05-08T08:51:28.626Z,12.02
2023-05-08T08:54:01.138Z,14.10
2023-05-08T08:56:27.997Z,12.68
2023-05-08T08:58:59.371Z,12.43
2023-05-08T09:01:26.937Z,15.98
2023-05-08T09:03:53.352Z,16.65
2023-05-08T09:06:19.674Z,18.58
2023-05-08T09:08:46.081Z,19.40
2023-05-08T09:11:12.357Z,20.52
2023-05-08T09:13:38.735Z,20.63
2023-05-08T09:16:05.332Z,21.33
2023-05-08T09:18:31.877Z,22.52
2023-05-08T09:21:00.274Z,22.70
2023-05-08T09:23:26.878Z,22.98
2023-05-08T09:25:53.946Z,24.67
2023-05-08T09:28:24.120Z,26.55
2023-05-08T09:30:54.880Z,28.00
2023-05-08T09:33:22.051Z,25.55
2023-05-08T09:35:48.593Z,27.45
2023-05-08T09:38:34.898Z,27.30
2023-05-08T09:43:27.491Z,25.75
2023-05-08T09:45:53.788Z,26.88
2023-05-08T09:48:36.425Z,27.00
2023-05-08T09:51:06.801Z,29.20
2023-05-08T09:53:33.155Z,29.05
2023-05-08T09:55:59.407Z,27.92
2023-05-08T09:58:37.332Z,27.85
2023-05-08T10:01:04.245Z,29.52
2023-05-08T10:03:49.226Z,27.58
2023-05-08T10:06:16.029Z,26.65
2023-05-08T10:08:42.515Z,27.92
2023-05-08T10:11:21.954Z,25.67
2023-05-08T10:13:48.328Z,27.25
2023-05-08T10:16:16.309Z,25.13
2023-05-08T10:18:47.430Z,26.27
2023-05-08T10:21:14.179Z,24.92
2023-05-08T10:23:42.442Z,26.25
2023-05-08T10:26:13.579Z,26.63
2023-05-08T10:28:39.810Z,26.77
2023-05-08T10:31:07.274Z,27.17
2023-05-08T10:33:34.641Z,25.77
2023-05-08T10:36:01.575Z,25.95
2023-05-08T10:38:28.072Z,24.42
2023-05-08T10:40:58.054Z,25.55
2023-05-08T10:43:25.036Z,27.17
2023-05-08T10:45:53.042Z,24.80
2023-05-08T10:48:22.561Z,27.83
2023-05-08T10:50:57.002Z,27.40
2023-05-08T10:53:42.130Z,26.40
2023-05-08T10:56:09.566Z,25.52
2023-05-08T10:58:37.215Z,27.42
2023-05-08T11:01:09.611Z,27.45
2023-05-08T11:03:56.124Z,25.98
2023-05-08T11:06:52.782Z,26.38
2023-05-08T11:09:23.191Z,25.70
2023-05-08T11:11:52.631Z,28.20
2023-05-08T11:14:19.676Z,25.15
2023-05-08T11:16:55.182Z,25.50
2023-05-08T11:19:22.414Z,26.33
2023-05-08T11:22:07.742Z,26.65
2023-05-08T11:24:35.314Z,24.25
2023-05-08T11:27:01.620Z,25.85
2023-05-08T11:29:27.914Z,23.40
2023-05-08T11:31:54.323Z,24.05
2023-05-08T11:34:39.524Z,23.92
2023-05-08T11:37:09.067Z,27.07
2023-05-08T11:39:38.413Z,26.25
2023-05-08T11:42:23.498Z,25.70
2023-05-08T11:44:50.256Z,23.70
2023-05-08T11:47:19.004Z,26.13
2023-05-08T11:49:45.441Z,24.40
2023-05-08T11:52:11.783Z,23.98
2023-05-08T11:54:38.147Z,25.10
2023-05-08T11:57:04.529Z,24.02
2023-05-08T11:59:34.724Z,23.83
2023-05-08T12:02:08.543Z,23.05
2023-05-08T12:04:48.620Z,20.83
2023-05-08T12:07:16.112Z,21.85
2023-05-08T12:09:43.803Z,22.42
2023-05-08T12:12:10.328Z,21.67
2023-05-08T12:14:39.582Z,20.48
2023-05-08T12:17:05.974Z,21.67
2023-05-08T12:19:32.406Z,19.50
2023-05-08T12:21:58.794Z,19.05
2023-05-08T12:24:26.129Z,17.92
2023-05-08T12:26:56.335Z,19.80
2023-05-08T12:29:25.084Z,20.23
2023-05-08T12:31:51.494Z,22.70
2023-05-08T12:34:17.912Z,21.40
2023-05-08T12:36:44.188Z,19.08
2023-05-08T12:39:15.054Z,19.75
2023-05-08T12:41:42.152Z,20.70
2023-05-08T12:44:16.588Z,18.85
2023-05-08T12:46:46.697Z,18.92
2023-05-08T12:49:13.209Z,16.77
2023-05-08T12:51:41.071Z,16.65
2023-05-08T12:54:07.424Z,16.52
2023-05-08T12:56:33.788Z,15.90
2023-05-08T12:59:00.388Z,16.65
2023-05-08T13:01:29.272Z,16.00
2023-05-08T13:04:01.414Z,17.13
2023-05-08T13:06:29.154Z,15.40
2023-05-08T13:08:56.081Z,16.33
2023-05-08T13:11:30.752Z,15.43
2023-05-08T13:13:57.086Z,15.73
2023-05-08T13:16:23.460Z,17.27
2023-05-08T13:18:49.775Z,16.77
2023-05-08T13:21:16.269Z,18.42
2023-05-08T13:23:43.367Z,16.27
2023-05-08T13:26:09.788Z,15.82
2023-05-08T13:28:36.116Z,15.73
2023-05-08T13:31:05.890Z,15.73
2023-05-08T13:33:32.600Z,19.52
2023-05-08T13:36:01.865Z,18.92
2023-05-08T13:38:28.736Z,17.30
2023-05-08T13:41:05.715Z,16.25
2023-05-08T13:43:43.159Z,15.85
2023-05-08T13:46:10.489Z,17.27
2023-05-08T13:48:37.065Z,16.30
2023-05-08T13:51:06.274Z,18.02
2023-05-08T13:53:32.801Z,16.70
2023-05-08T13:55:59.153Z,16.63
2023-05-08T13:58:25.568Z,17.60
2023-05-08T14:00:52.180Z,18.35
2023-05-08T14:03:18.692Z,17.10
2023-05-08T14:05:45.275Z,16.25
2023-05-08T14:08:11.610Z,15.63
2023-05-08T14:10:38.837Z,16.02
2023-05-08T14:13:05.549Z,18.00
2023-05-08T14:15:36.824Z,17.15
2023-05-08T14:18:03.921Z,16.75
2023-05-08T14:20:30.587Z,17.23
2023-05-08T14:23:00.033Z,17.52
2023-05-08T14:25:27.050Z,15.55
2023-05-08T14:27:53.542Z,15.07
2023-05-08T14:30:19.842Z,17.02
2023-05-08T14:32:46.466Z,16.15
2023-05-08T14:35:14.425Z,16.30
2023-05-08T14:37:41.016Z,14.98
2023-05-08T14:40:07.947Z,13.77
2023-05-08T14:42:34.574Z,15.75
2023-05-08T14:45:04.149Z,13.55
2023-05-08T14:47:33.628Z,14.52
2023-05-08T14:50:00.045Z,13.82
2023-05-08T14:52:26.339Z,13.77
2023-05-08T14:54:55.827Z,13.70
2023-05-08T14:57:22.307Z,13.00
2023-05-08T14:59:55.038Z,13.82
2023-05-08T15:02:25.102Z,14.10
2023-05-08T15:04:51.587Z,13.75
2023-05-08T15:07:20.747Z,12.98
2023-05-08T15:09:47.873Z,12.02
2023-05-08T15:12:14.261Z,12.30
2023-05-08T15:14:40.750Z,14.10
2023-05-08T15:17:07.068Z,12.82
2023-05-08T15:19:33.408Z,15.30
2023-05-08T15:21:59.765Z,12.18
2023-05-08T15:24:26.257Z,14.80
2023-05-08T15:26:52.566Z,14.02
2023-05-08T15:29:18.881Z,13.32
2023-05-08T15:31:45.297Z,12.70
2023-05-08T15:34:11.758Z,13.50
2023-05-08T15:36:38.091Z,12.73
2023-05-08T15:39:04.484Z,11.27
2023-05-08T15:41:30.878Z,11.88
2023-05-08T15:43:57.153Z,12.13
2023-05-08T15:46:23.511Z,11.80
2023-05-08T15:48:49.887Z,10.20
2023-05-08T15:51:16.323Z,11.82
2023-05-08T15:53:42.693Z,11.27
2023-05-08T15:56:09.015Z,11.60
2023-05-08T15:58:36.878Z,10.48
2023-05-08T16:01:04.792Z,10.27
2023-05-08T16:03:31.591Z,12.20
2023-05-08T16:05:58.013Z,11.45
2023-05-08T16:08:24.363Z,10.60
2023-05-08T16:10:50.725Z,10.95
2023-05-08T16:13:17.114Z,11.48
2023-05-08T16:15:43.704Z,10.77
2023-05-08T16:18:10.348Z,10.50
2023-05-08T16:20:36.723Z,11.70
2023-05-08T16:23:03.140Z,9.80
2023-05-08T16:25:30.550Z,10.60
2023-05-08T16:27:56.839Z,10.98
2023-05-08T16:30:23.229Z,9.93
2023-05-08T16:32:49.672Z,11.40
2023-05-08T16:35:16.256Z,10.43
2023-05-08T16:37:43.042Z,10.00
2023-05-08T16:40:09.793Z,11.73
2023-05-08T16:42:36.936Z,10.95
2023-05-08T16:45:04.042Z,10.98
2023-05-08T16:47:30.464Z,11.23
2023-05-08T16:49:56.774Z,10.30
2023-05-08T16:52:23.069Z,10.30
2023-05-08T16:54:49.404Z,10.57
2023-05-08T16:57:15.729Z,10.82
2023-05-08T16:59:42.401Z,10.45
2023-05-08T17:02:08.851Z,10.60
2023-05-08T17:04:35.460Z,10.68
2023-05-08T17:07:01.753Z,9.45
2023-05-08T17:09:28.203Z,11.65
2023-05-08T17:11:54.529Z,11.02
2023-05-08T17:14:21.024Z,10.35
2023-05-08T17:16:47.454Z,9.13
2023-05-08T17:19:13.986Z,9.05
2023-05-08T17:21:40.352Z,8.77
2023-05-08T17:24:06.980Z,10.05
2023-05-08T17:26:33.600Z,12.98
2023-05-08T17:28:59.997Z,11.23
2023-05-08T17:31:26.508Z,9.60
2023-05-08T17:33:52.992Z,10.88
2023-05-08T17:36:19.377Z,9.52
2023-05-08T17:38:47.254Z,8.40
2023-05-08T17:41:13.979Z,8.50
2023-05-08T17:43:40.613Z,9.48
2023-05-08T17:46:07.726Z,10.95
2023-05-08T17:48:35.988Z,10.57
2023-05-08T17:51:03.104Z,9.00
2023-05-08T17:53:30.537Z,8.88
2023-05-08T17:55:57.435Z,12.25
2023-05-08T17:58:24.058Z,11.05
2023-05-08T18:00:50.552Z,10.82
2023-05-08T18:03:17.003Z,10.63
2023-05-08T18:05:43.687Z,9.68
2023-05-08T18:08:10.072Z,11.32
2023-05-08T18:10:36.464Z,10.20
2023-05-08T18:13:02.843Z,11.13
2023-05-08T18:15:29.288Z,12.18
2023-05-08T18:17:55.820Z,10.05
2023-05-08T18:20:22.965Z,9.25
2023-05-08T18:22:49.556Z,8.77
2023-05-08T18:25:15.900Z,10.45
2023-05-08T18:27:42.752Z,11.60
2023-05-08T18:30:09.433Z,15.23
2023-05-08T18:32:36.749Z,10.35
2023-05-08T18:35:03.424Z,10.68
2023-05-08T18:37:29.825Z,10.80
2023-05-08T18:39:56.404Z,14.52
2023-05-08T18:42:22.945Z,11.40
2023-05-08T18:44:49.459Z,11.35
2023-05-08T18:47:15.826Z,8.27
2023-05-08T18:49:43.732Z,11.63
2023-05-08T18:52:10.120Z,12.63
2023-05-08T18:54:36.436Z,8.98
2023-05-08T18:57:02.770Z,13.40
2023-05-08T18:59:29.043Z,10.00
2023-05-08T19:01:55.489Z,8.48
2023-05-08T19:04:21.807Z,12.65
2023-05-08T19:06:48.057Z,9.63
2023-05-08T19:09:14.457Z,11.90
2023-05-08T19:11:40.812Z,10.27
2023-05-08T19:14:10.389Z,10.73
2023-05-08T19:16:36.751Z,9.10
2023-05-08T19:19:03.075Z,8.43
2023-05-08T19:21:29.500Z,8.35
2023-05-08T19:23:55.791Z,8.75
2023-05-08T19:26:22.984Z,7.80
2023-05-08T19:28:49.320Z,10.70
2023-05-08T19:31:15.660Z,9.98
2023-05-08T19:33:42.018Z,10.15
2023-05-08T19:36:08.312Z,9.63
2023-05-08T19:38:34.669Z,11.23
2023-05-08T19:41:01.005Z,9.63
2023-05-08T19:43:27.262Z,9.35
2023-05-08T19:45:53.673Z,8.13
2023-05-08T19:48:20.398Z,8.45
2023-05-08T19:50:46.845Z,7.32
2023-05-08T19:53:13.134Z,9.13
2023-05-08T19:55:39.471Z,9.73
2023-05-08T19:58:05.780Z,8.65
2023-05-08T20:00:32.030Z,7.75
2023-05-08T20:02:58.377Z,10.25
2023-05-08T20:05:24.763Z,11.20
2023-05-08T20:07:51.132Z,9.13
2023-05-08T20:10:17.541Z,6.22
2023-05-08T20:12:43.885Z,9.25
2023-05-08T20:15:10.465Z,8.13
2023-05-08T20:17:36.854Z,6.40
2023-05-08T20:20:03.421Z,8.95
2023-05-08T20:22:29.750Z,8.32
2023-05-08T20:24:56.137Z,9.23
2023-05-08T20:27:22.370Z,8.48
2023-05-08T20:29:48.719Z,9.18
2023-05-08T20:32:16.388Z,7.40
2023-05-08T20:34:44.084Z,10.23
2023-05-08T20:37:10.527Z,8.18
2023-05-08T20:39:36.829Z,8.52
2023-05-08T20:42:03.182Z,8.77
2023-05-08T20:44:29.519Z,8.27
2023-05-08T20:46:55.816Z,7.40
2023-05-08T20:49:22.120Z,6.90
2023-05-08T20:51:48.447Z,11.75
2023-05-08T20:54:14.691Z,11.05
2023-05-08T20:56:40.964Z,8.77
2023-05-08T20:59:07.416Z,8.45
2023-05-08T21:01:33.739Z,8.32
2023-05-08T21:04:00.229Z,9.75
2023-05-08T21:06:26.547Z,12.40
2023-05-08T21:08:52.853Z,11.45
2023-05-08T21:11:19.199Z,10.38
2023-05-08T21:13:48.586Z,9.80
2023-05-08T21:16:17.251Z,9.23
2023-05-08T21:18:43.641Z,11.23
2023-05-08T21:21:19.925Z,9.68
2023-05-08T21:23:46.269Z,9.18
2023-05-08T21:26:12.628Z,10.30
2023-05-08T21:28:38.984Z,9.75
2023-05-08T21:31:05.888Z,8.10
2023-05-08T21:33:33.680Z,9.93
2023-05-08T21:36:00.010Z,11.73
2023-05-08T21:38:26.371Z,9.82
2023-05-08T21:40:53.641Z,8.98
2023-05-08T21:43:19.957Z,11.55
2023-05-08T21:45:46.221Z,9.27
2023-05-08T21:48:13.008Z,9.75
2023-05-08T21:50:39.332Z,11.40
2023-05-08T21:53:05.725Z,7.93
2023-05-08T21:55:32.505Z,9.85
2023-05-08T21:57:58.919Z,9.02
2023-05-08T22:00:25.368Z,9.43
2023-05-08T22:02:51.746Z,8.98
2023-05-08T22:05:18.135Z,8.82
2023-05-08T22:07:44.479Z,7.88
2023-05-08T22:10:11.656Z,9.50
2023-05-08T22:12:37.970Z,8.38
2023-05-08T22:15:14.988Z,9.93
2023-05-08T22:17:46.987Z,9.55
2023-05-08T22:20:16.855Z,8.38
2023-05-08T22:22:43.195Z,11.02
2023-05-08T22:25:09.578Z,9.00
2023-05-08T22:27:36.178Z,9.43
2023-05-08T22:30:02.601Z,11.63
2023-05-08T22:32:29.079Z,9.73
2023-05-08T22:34:58.315Z,8.35
2023-05-08T22:37:25.241Z,7.32
2023-05-08T22:39:51.536Z,9.73
2023-05-08T22:42:18.061Z,9.80
2023-05-08T22:44:44.993Z,7.68
2023-05-08T22:47:11.972Z,9.40
2023-05-08T22:49:39.504Z,9.07
2023-05-08T22:52:06.365Z,8.30
2023-05-08T22:54:32.916Z,9.50
2023-05-08T22:56:59.392Z,9.45
2023-05-08T22:59:27.289Z,7.85
2023-05-08T23:01:53.837Z,10.43
2023-05-08T23:04:20.324Z,8.65
2023-05-08T23:06:46.670Z,9.15
2023-05-08T23:09:13.002Z,9.23
2023-05-08T23:11:39.334Z,8.13
2023-05-08T23:14:05.591Z,9.13
2023-05-08T23:16:31.992Z,8.50
2023-05-08T23:18:58.419Z,10.65
2023-05-08T23:21:24.743Z,9.02
2023-05-08T23:23:51.123Z,9.25
2023-05-08T23:26:17.967Z,8.80
2023-05-08T23:28:44.262Z,9.02
2023-05-08T23:31:10.644Z,9.38
2023-05-08T23:33:36.979Z,9.07
2023-05-08T23:36:03.305Z,8.73
2023-05-08T23:38:29.567Z,9.38
2023-05-08T23:40:55.845Z,8.70
2023-05-08T23:43:22.181Z,8.70
2023-05-08T23:45:49.374Z,7.22
2023-05-08T23:48:16.304Z,8.52
2023-05-08T23:50:42.703Z,9.02
2023-05-08T23:53:09.177Z,8.38
2023-05-08T23:55:38.984Z,9.70
2023-05-08T23:58:05.292Z,8.18
